createdAt,value
2018-01-19T00:00:41.383Z,17.30
2018-01-19T00:03:11.832Z,17.00
2018-01-19T00:05:41.575Z,18.83
2018-01-19T00:08:11.233Z,21.17
2018-01-19T00:10:40.937Z,22.73
2018-01-19T00:13:11.557Z,20.30
2018-01-19T00:15:42.045Z,21.67
2018-01-19T00:18:11.791Z,22.07
2018-01-19T00:20:41.480Z,27.20
2018-01-19T00:23:11.528Z,26.50
2018-01-19T00:25:41.973Z,24.27
2018-01-19T00:28:11.673Z,21.97
2018-01-19T00:30:41.377Z,23.00
2018-01-19T00:33:11.985Z,21.00
2018-01-19T00:35:41.665Z,20.73
2018-01-19T00:38:11.436Z,20.43
2018-01-19T00:40:41.098Z,20.30
2018-01-19T00:43:10.777Z,22.27
2018-01-19T00:45:40.458Z,21.37
2018-01-19T00:48:10.882Z,20.87
2018-01-19T00:50:41.334Z,21.00
2018-01-19T00:53:11.028Z,20.60
2018-01-19T00:55:40.715Z,20.70
2018-01-19T00:58:11.162Z,20.47
2018-01-19T01:00:40.962Z,21.20
2018-01-19T01:03:11.427Z,21.80
2018-01-19T01:05:41.128Z,21.20
2018-01-19T01:08:10.803Z,20.80
2018-01-19T01:10:41.287Z,20.60
2018-01-19T01:13:11.002Z,19.37
2018-01-19T01:15:40.696Z,18.77
2018-01-19T01:18:10.358Z,19.67
2018-01-19T01:20:40.794Z,23.93
2018-01-19T01:23:11.214Z,21.23
2018-01-19T01:25:41.685Z,21.37
2018-01-19T01:28:11.378Z,21.27
2018-01-19T01:30:41.070Z,21.50
2018-01-19T01:33:11.507Z,20.53
2018-01-19T01:35:42.024Z,20.87
2018-01-19T01:38:12.489Z,19.43
2018-01-19T01:40:42.179Z,20.80
2018-01-19T01:43:11.869Z,20.37
2018-01-19T01:45:42.831Z,19.17
2018-01-19T01:48:12.508Z,19.13
2018-01-19T01:50:42.959Z,19.00
2018-01-19T01:53:12.646Z,17.80
2018-01-19T01:55:43.078Z,20.67
2018-01-19T01:58:13.493Z,17.83
2018-01-19T02:00:43.969Z,19.63
2018-01-19T02:03:13.628Z,18.17
2018-01-19T02:05:44.065Z,19.77
2018-01-19T02:08:14.553Z,18.40
2018-01-19T02:10:44.219Z,17.57
2018-01-19T02:13:13.906Z,20.10
2018-01-19T02:15:44.370Z,19.37
2018-01-19T02:18:14.050Z,18.13
2018-01-19T02:20:44.517Z,17.13
2018-01-19T02:23:14.256Z,16.83
2018-01-19T02:25:43.937Z,17.53
2018-01-19T02:28:13.592Z,16.83
2018-01-19T02:30:44.055Z,17.33
2018-01-19T02:33:13.749Z,17.97
2018-01-19T02:35:43.433Z,17.67
2018-01-19T02:38:13.878Z,16.40
2018-01-19T02:40:43.566Z,14.47
2018-01-19T02:43:14.005Z,16.23
2018-01-19T02:45:44.769Z,16.60
2018-01-19T02:48:14.440Z,17.27
2018-01-19T02:50:44.893Z,17.03
2018-01-19T02:53:14.560Z,16.53
2018-01-19T02:55:45.007Z,16.57
2018-01-19T02:58:15.433Z,16.13
2018-01-19T03:00:45.918Z,16.97
2018-01-19T03:03:15.575Z,17.70
2018-01-19T03:05:46.012Z,18.33
2018-01-19T03:08:16.468Z,18.03
2018-01-19T03:10:46.142Z,17.37
2018-01-19T03:13:16.592Z,16.00
2018-01-19T03:15:46.326Z,18.23
2018-01-19T03:18:16.630Z,17.90
2018-01-19T03:20:46.300Z,17.30
2018-01-19T03:23:16.745Z,17.87
2018-01-19T03:25:46.451Z,20.53
2018-01-19T03:28:16.874Z,18.37
2018-01-19T03:30:46.550Z,19.00
2018-01-19T03:33:16.234Z,20.73
2018-01-19T03:35:45.912Z,19.40
2018-01-19T03:38:15.600Z,18.43
2018-01-19T03:40:46.557Z,19.90
2018-01-19T03:43:16.234Z,18.10
2018-01-19T03:45:45.902Z,18.13
2018-01-19T03:48:15.585Z,18.40
2018-01-19T03:50:45.257Z,18.07
2018-01-19T03:53:14.985Z,16.10
2018-01-19T03:55:45.503Z,15.17
2018-01-19T03:58:15.168Z,15.80
2018-01-19T04:00:44.880Z,14.10
2018-01-19T04:03:14.587Z,14.67
2018-01-19T04:05:44.265Z,15.70
2018-01-19T04:08:13.993Z,15.77
2018-01-19T04:10:43.671Z,16.07
2018-01-19T04:13:14.845Z,16.97
2018-01-19T04:15:44.522Z,15.37
2018-01-19T04:18:15.280Z,15.07
2018-01-19T04:20:45.753Z,14.57
2018-01-19T04:23:15.468Z,15.53
2018-01-19T04:25:45.153Z,14.00
2018-01-19T04:28:15.445Z,15.53
2018-01-19T04:30:45.138Z,14.23
2018-01-19T04:33:15.562Z,14.70
2018-01-19T04:35:46.626Z,15.20
2018-01-19T04:38:16.297Z,15.17
2018-01-19T04:40:46.154Z,15.60
2018-01-19T04:43:15.838Z,13.73
2018-01-19T04:45:46.713Z,14.60
2018-01-19T04:48:16.530Z,15.63
2018-01-19T04:50:46.209Z,15.23
2018-01-19T04:53:15.885Z,14.00
2018-01-19T04:55:45.613Z,15.30
2018-01-19T04:58:16.052Z,16.67
2018-01-19T05:00:46.480Z,15.40
2018-01-19T05:03:16.469Z,16.00
2018-01-19T05:05:46.930Z,13.37
2018-01-19T05:08:16.578Z,15.27
2018-01-19T05:10:46.240Z,14.00
2018-01-19T05:13:15.919Z,13.47
2018-01-19T05:15:45.591Z,13.80
2018-01-19T05:18:15.585Z,13.90
2018-01-19T05:20:45.364Z,13.73
2018-01-19T05:23:15.813Z,13.07
2018-01-19T05:25:45.492Z,13.33
2018-01-19T05:28:15.173Z,14.83
2018-01-19T05:30:45.171Z,15.80
2018-01-19T05:33:14.854Z,15.47
2018-01-19T05:35:45.263Z,15.07
2018-01-19T05:38:15.768Z,15.27
2018-01-19T05:40:45.435Z,14.97
2018-01-19T05:43:15.359Z,14.83
2018-01-19T05:45:45.102Z,14.43
2018-01-19T05:48:14.809Z,13.23
2018-01-19T05:50:44.490Z,12.77
2018-01-19T05:53:14.157Z,13.30
2018-01-19T05:55:44.648Z,14.63
2018-01-19T05:58:14.381Z,16.07
2018-01-19T06:00:44.825Z,16.10
2018-01-19T06:03:15.262Z,16.70
2018-01-19T06:05:44.941Z,16.90
2018-01-19T06:08:14.598Z,15.37
2018-01-19T06:10:44.407Z,14.10
2018-01-19T06:13:14.081Z,15.50
2018-01-19T06:15:44.518Z,13.97
2018-01-19T06:18:14.938Z,13.77
2018-01-19T06:20:45.367Z,14.30
2018-01-19T06:23:15.831Z,13.70
2018-01-19T06:25:45.507Z,13.40
2018-01-19T06:28:15.960Z,13.80
2018-01-19T06:30:45.661Z,13.30
2018-01-19T06:33:16.106Z,12.43
2018-01-19T06:35:45.802Z,12.80
2018-01-19T06:38:15.470Z,14.50
2018-01-19T06:40:45.165Z,13.07
2018-01-19T06:43:14.836Z,13.60
2018-01-19T06:45:44.533Z,13.47
2018-01-19T06:48:14.216Z,12.70
2018-01-19T06:50:44.698Z,12.57
2018-01-19T06:53:14.372Z,12.23
2018-01-19T06:55:44.051Z,10.67
2018-01-19T06:58:13.740Z,9.93
2018-01-19T07:00:43.506Z,10.07
2018-01-19T07:03:13.204Z,10.47
2018-01-19T07:05:42.908Z,9.47
2018-01-19T07:08:13.362Z,9.57
2018-01-19T07:10:43.049Z,8.37
2018-01-19T07:13:12.786Z,9.30
2018-01-19T07:15:42.462Z,8.77
2018-01-19T07:18:12.894Z,9.50
2018-01-19T07:20:42.554Z,9.43
2018-01-19T07:23:12.305Z,9.00
2018-01-19T07:25:42.759Z,9.73
2018-01-19T07:28:12.414Z,10.80
2018-01-19T07:30:42.176Z,10.50
2018-01-19T07:33:12.885Z,10.00
2018-01-19T07:35:43.336Z,10.40
2018-01-19T07:38:13.017Z,12.70
2018-01-19T07:40:43.648Z,11.80
2018-01-19T07:43:14.281Z,11.83
2018-01-19T07:45:44.916Z,10.03
2018-01-19T07:48:15.577Z,11.27
2018-01-19T07:50:45.278Z,10.23
2018-01-19T07:53:14.957Z,9.30
2018-01-19T07:55:45.431Z,10.67
2018-01-19T07:58:15.103Z,9.50
2018-01-19T08:00:46.228Z,11.00
2018-01-19T08:03:15.913Z,11.10
2018-01-19T08:05:45.576Z,13.00
2018-01-19T08:08:15.278Z,12.20
2018-01-19T08:10:45.772Z,10.33
2018-01-19T08:13:15.498Z,11.60
2018-01-19T08:15:45.163Z,11.80
2018-01-19T08:18:14.830Z,11.70
2018-01-19T08:20:44.563Z,11.30
2018-01-19T08:23:14.268Z,10.80
2018-01-19T08:25:43.953Z,11.87
2018-01-19T08:28:14.442Z,12.27
2018-01-19T08:30:44.129Z,12.63
2018-01-19T08:33:13.808Z,12.67
2018-01-19T08:35:44.265Z,12.77
2018-01-19T08:38:13.962Z,12.87
2018-01-19T08:40:43.669Z,11.80
2018-01-19T08:43:13.326Z,12.43
2018-01-19T08:45:43.092Z,12.53
2018-01-19T08:48:12.758Z,11.20
2018-01-19T08:50:42.428Z,10.47
2018-01-19T08:53:12.831Z,11.50
2018-01-19T08:55:42.523Z,11.77
2018-01-19T08:58:12.214Z,11.40
2018-01-19T09:00:41.886Z,11.40
2018-01-19T09:03:11.554Z,11.60
2018-01-19T09:05:41.994Z,12.03
2018-01-19T09:08:11.666Z,13.17
2018-01-19T09:10:41.356Z,13.07
2018-01-19T09:13:11.038Z,12.33
2018-01-19T09:15:40.694Z,11.40
2018-01-19T09:18:10.391Z,12.63
2018-01-19T09:20:40.079Z,13.00
2018-01-19T09:23:09.736Z,12.40
2018-01-19T09:25:40.196Z,12.97
2018-01-19T09:28:09.886Z,13.20
2018-01-19T09:30:39.613Z,13.10
2018-01-19T09:33:09.390Z,14.90
2018-01-19T09:35:39.829Z,13.40
2018-01-19T09:38:10.282Z,13.90
2018-01-19T09:40:39.989Z,13.97
2018-01-19T09:43:09.676Z,16.63
2018-01-19T09:45:39.346Z,17.50
2018-01-19T09:48:09.009Z,18.43
2018-01-19T09:50:38.810Z,17.60
2018-01-19T09:53:08.503Z,17.87
2018-01-19T09:55:38.953Z,16.87
2018-01-19T09:58:08.658Z,18.70
2018-01-19T10:00:38.358Z,17.53
2018-01-19T10:03:08.806Z,16.80
2018-01-19T10:05:38.490Z,18.97
2018-01-19T10:08:09.553Z,18.30
2018-01-19T10:10:39.227Z,18.30
2018-01-19T10:13:09.677Z,17.67
2018-01-19T10:15:39.733Z,19.00
2018-01-19T10:18:09.441Z,18.57
2018-01-19T10:20:39.102Z,17.30
2018-01-19T10:23:09.560Z,18.20
2018-01-19T10:25:39.238Z,17.80
2018-01-19T10:28:09.689Z,19.50
2018-01-19T10:30:39.378Z,17.50
2018-01-19T10:33:09.798Z,18.27
2018-01-19T10:35:40.289Z,14.40
2018-01-19T10:38:10.778Z,14.70
2018-01-19T10:40:40.493Z,13.80
2018-01-19T10:43:10.174Z,11.47
2018-01-19T10:45:40.606Z,9.37
2018-01-19T10:48:11.084Z,7.73
2018-01-19T10:50:40.773Z,6.63
2018-01-19T10:53:10.439Z,3.67
2018-01-19T10:55:40.942Z,2.80
2018-01-19T10:58:10.613Z,3.10
2018-01-19T11:00:40.290Z,4.97
2018-01-19T11:03:10.726Z,6.13
2018-01-19T11:05:41.198Z,5.40
2018-01-19T11:08:10.865Z,4.67
2018-01-19T11:10:40.558Z,5.70
2018-01-19T11:13:11.022Z,5.10
2018-01-19T11:15:40.728Z,6.27
2018-01-19T11:18:10.509Z,6.47
2018-01-19T11:20:41.038Z,5.80
2018-01-19T11:23:11.499Z,5.83
2018-01-19T11:25:41.341Z,5.43
2018-01-19T11:28:11.090Z,7.03
2018-01-19T11:30:40.746Z,7.40
2018-01-19T11:33:10.441Z,7.37
2018-01-19T11:35:40.118Z,7.70
2018-01-19T11:38:10.575Z,7.47
2018-01-19T11:40:40.253Z,7.80
2018-01-19T11:43:10.690Z,7.13
2018-01-19T11:45:40.416Z,7.90
2018-01-19T11:48:10.119Z,7.30
2018-01-19T11:50:39.819Z,8.67
2018-01-19T11:53:09.532Z,8.43
2018-01-19T11:55:39.219Z,8.90
2018-01-19T11:58:09.667Z,8.50
2018-01-19T12:00:39.393Z,8.33
2018-01-19T12:03:09.117Z,9.30
2018-01-19T12:05:38.860Z,7.90
2018-01-19T12:08:08.625Z,8.33
2018-01-19T12:10:38.318Z,9.63
2018-01-19T12:13:08.774Z,7.93
2018-01-19T12:15:38.462Z,9.03
2018-01-19T12:18:08.217Z,9.10
2018-01-19T12:20:38.653Z,8.47
2018-01-19T12:23:08.353Z,9.63
2018-01-19T12:25:38.023Z,9.53
2018-01-19T12:28:07.722Z,9.03
2018-01-19T12:30:37.417Z,9.27
2018-01-19T12:33:07.868Z,8.80
2018-01-19T12:35:37.558Z,9.63
2018-01-19T12:38:07.239Z,9.00
2018-01-19T12:40:36.914Z,7.80
2018-01-19T12:43:06.606Z,6.83
2018-01-19T12:45:36.286Z,7.47
2018-01-19T12:48:06.735Z,7.30
2018-01-19T12:50:36.437Z,8.30
2018-01-19T12:53:06.154Z,8.17
2018-01-19T12:55:35.930Z,7.90
2018-01-19T12:58:05.616Z,8.17
2018-01-19T13:00:35.396Z,8.10
2018-01-19T13:03:05.104Z,6.83
2018-01-19T13:05:34.789Z,7.27
2018-01-19T13:10:39.062Z,7.10
2018-01-19T13:13:08.754Z,8.60
2018-01-19T13:15:38.441Z,7.53
2018-01-19T13:18:08.876Z,9.10
2018-01-19T13:20:38.566Z,9.43
2018-01-19T13:23:09.030Z,8.43
2018-01-19T13:25:38.720Z,8.60
2018-01-19T13:28:08.398Z,9.13
2018-01-19T13:30:38.061Z,9.53
2018-01-19T13:33:07.846Z,9.23
2018-01-19T13:35:37.516Z,7.70
2018-01-19T13:38:07.510Z,9.27
2018-01-19T13:40:37.935Z,8.80
2018-01-19T13:43:08.361Z,8.20
2018-01-19T13:45:38.548Z,9.37
2018-01-19T13:48:08.246Z,9.20
2018-01-19T13:50:38.706Z,8.27
2018-01-19T13:53:08.670Z,8.70
2018-01-19T13:55:38.418Z,8.80
2018-01-19T13:58:08.136Z,8.17
2018-01-19T14:00:37.957Z,8.57
2018-01-19T14:03:07.750Z,9.00
2018-01-19T14:05:37.475Z,8.87
2018-01-19T14:08:07.526Z,8.60
2018-01-19T14:10:37.240Z,9.90
2018-01-19T14:13:07.067Z,9.93
2018-01-19T14:15:36.782Z,8.07
2018-01-19T14:18:06.497Z,8.73
2018-01-19T14:20:37.025Z,8.23
2018-01-19T14:23:07.602Z,11.00
2018-01-19T14:25:37.424Z,8.30
2018-01-19T14:28:07.253Z,8.50
2018-01-19T14:30:37.046Z,8.50
2018-01-19T14:33:06.918Z,8.97
2018-01-19T14:35:37.494Z,8.47
2018-01-19T14:38:07.311Z,8.50
2018-01-19T14:40:37.159Z,9.57
2018-01-19T14:43:07.738Z,8.60
2018-01-19T14:45:37.563Z,8.40
2018-01-19T14:48:07.381Z,8.53
2018-01-19T14:50:37.211Z,9.40
2018-01-19T14:53:07.029Z,9.30
2018-01-19T14:55:37.529Z,10.20
2018-01-19T14:58:07.377Z,9.60
2018-01-19T15:00:37.994Z,8.50
2018-01-19T15:03:07.809Z,8.40
2018-01-19T15:05:37.672Z,8.40
2018-01-19T15:08:07.526Z,9.50
2018-01-19T15:10:37.370Z,8.60
2018-01-19T15:13:07.995Z,8.37
2018-01-19T15:15:38.550Z,9.10
2018-01-19T15:18:08.437Z,9.10
2018-01-19T15:20:39.019Z,8.37
2018-01-19T15:23:08.888Z,9.40
2018-01-19T15:25:39.720Z,9.43
2018-01-19T15:28:10.367Z,8.13
2018-01-19T15:30:40.154Z,9.20
2018-01-19T15:33:10.742Z,9.17
2018-01-19T15:35:40.514Z,8.33
2018-01-19T15:38:11.112Z,9.60
2018-01-19T15:40:40.900Z,8.27
2018-01-19T15:43:10.737Z,9.47
2018-01-19T15:45:42.394Z,9.50
2018-01-19T15:48:12.202Z,9.80
2018-01-19T15:50:42.018Z,9.73
2018-01-19T15:53:11.767Z,10.50
2018-01-19T15:55:41.543Z,9.33
2018-01-19T15:58:11.269Z,9.70
2018-01-19T16:00:42.330Z,10.30
2018-01-19T16:03:12.124Z,9.90
2018-01-19T16:05:42.623Z,9.80
2018-01-19T16:08:12.328Z,9.57
2018-01-19T16:10:42.070Z,9.10
2018-01-19T16:13:13.173Z,10.20
2018-01-19T16:15:42.882Z,9.73
2018-01-19T16:18:12.558Z,10.03
2018-01-19T16:20:42.254Z,9.93
2018-01-19T16:23:11.966Z,10.00
2018-01-19T16:25:41.666Z,9.93
2018-01-19T16:28:12.501Z,9.70
2018-01-19T16:30:42.965Z,10.73
2018-01-19T16:33:12.695Z,10.13
2018-01-19T16:35:42.854Z,9.83
2018-01-19T16:38:13.625Z,11.03
2018-01-19T16:40:44.089Z,10.10
2018-01-19T16:43:13.777Z,10.30
2018-01-19T16:45:43.469Z,9.50
2018-01-19T16:48:13.170Z,10.30
2018-01-19T16:50:42.850Z,9.27
2018-01-19T16:53:13.995Z,11.03
2018-01-19T16:55:44.477Z,10.13
2018-01-19T16:58:14.207Z,9.03
2018-01-19T17:00:43.883Z,9.60
2018-01-19T17:03:15.103Z,8.53
2018-01-19T17:05:44.810Z,10.23
2018-01-19T17:08:14.531Z,10.30
2018-01-19T17:10:44.204Z,10.27
2018-01-19T17:13:13.866Z,10.17
2018-01-19T17:15:43.545Z,8.87
2018-01-19T17:18:13.250Z,10.23
2018-01-19T17:20:43.885Z,9.40
2018-01-19T17:23:13.566Z,10.07
2018-01-19T17:25:43.250Z,8.43
2018-01-19T17:28:12.922Z,9.60
2018-01-19T17:30:42.622Z,8.87
2018-01-19T17:33:13.098Z,8.60
2018-01-19T17:35:42.786Z,8.70
2018-01-19T17:38:13.187Z,8.60
2018-01-19T17:40:43.622Z,9.27
2018-01-19T17:43:13.306Z,9.00
2018-01-19T17:45:43.787Z,9.60
2018-01-19T17:48:13.474Z,8.97
2018-01-19T17:50:43.334Z,8.33
2018-01-19T17:53:13.066Z,8.87
2018-01-19T17:55:43.544Z,8.93
2018-01-19T17:58:13.235Z,8.77
2018-01-19T18:00:42.929Z,8.93
2018-01-19T18:03:13.133Z,8.83
2018-01-19T18:05:43.670Z,8.67
2018-01-19T18:08:14.131Z,7.77
2018-01-19T18:10:43.820Z,8.73
2018-01-19T18:13:13.542Z,7.30
2018-01-19T18:15:43.207Z,7.43
2018-01-19T18:18:12.903Z,8.57
2018-01-19T18:20:42.638Z,8.03
2018-01-19T18:23:13.085Z,7.93
2018-01-19T18:25:42.750Z,8.57
2018-01-19T18:28:12.444Z,7.10
2018-01-19T18:30:42.134Z,8.40
2018-01-19T18:33:11.811Z,8.27
2018-01-19T18:35:42.254Z,8.67
2018-01-19T18:38:11.966Z,8.40
2018-01-19T18:40:41.654Z,8.50
2018-01-19T18:43:12.161Z,8.57
2018-01-19T18:45:41.818Z,8.23
2018-01-19T18:48:11.505Z,9.10
2018-01-19T18:50:41.249Z,8.37
2018-01-19T18:53:10.945Z,8.50
2018-01-19T18:55:40.619Z,8.87
2018-01-19T18:58:11.707Z,8.00
2018-01-19T19:00:41.456Z,8.10
2018-01-19T19:03:11.146Z,8.50
2018-01-19T19:05:40.850Z,7.53
2018-01-19T19:08:10.533Z,8.70
2018-01-19T19:10:40.198Z,7.17
2018-01-19T19:13:09.870Z,8.00
2018-01-19T19:15:39.529Z,8.40
2018-01-19T19:18:09.986Z,7.90
2018-01-19T19:20:39.666Z,7.93
2018-01-19T19:23:10.137Z,7.03
2018-01-19T19:25:39.798Z,7.97
2018-01-19T19:28:10.222Z,6.87
2018-01-19T19:30:40.645Z,7.40
2018-01-19T19:33:11.267Z,7.83
2018-01-19T19:35:41.010Z,7.10
2018-01-19T19:38:10.702Z,7.20
2018-01-19T19:40:41.203Z,7.37
2018-01-19T19:43:10.907Z,6.43
2018-01-19T19:45:40.626Z,6.10
2018-01-19T19:48:11.082Z,7.20
2018-01-19T19:50:41.558Z,6.57
2018-01-19T19:53:11.226Z,7.53
2018-01-19T19:55:41.679Z,6.30
2018-01-19T19:58:12.145Z,7.50
2018-01-19T20:00:41.838Z,7.37
2018-01-19T20:03:11.502Z,7.10
2018-01-19T20:05:41.915Z,6.33
2018-01-19T20:08:12.386Z,5.87
2018-01-19T20:10:42.062Z,7.63
2018-01-19T20:13:11.745Z,6.90
2018-01-19T20:15:41.426Z,6.57
2018-01-19T20:18:11.099Z,6.43
2018-01-19T20:20:40.765Z,6.10
2018-01-19T20:23:10.454Z,6.80
2018-01-19T20:25:40.166Z,6.40
2018-01-19T20:28:09.853Z,6.53
2018-01-19T20:30:39.574Z,6.23
2018-01-19T20:33:09.243Z,6.40
2018-01-19T20:35:39.747Z,6.30
2018-01-19T20:38:10.205Z,6.93
2018-01-19T20:40:39.896Z,5.57
2018-01-19T20:43:09.575Z,6.10
2018-01-19T20:45:39.293Z,6.40
2018-01-19T20:48:08.958Z,6.00
2018-01-19T20:50:38.638Z,6.80
2018-01-19T20:53:09.051Z,6.40
2018-01-19T20:55:39.493Z,5.80
2018-01-19T20:58:09.908Z,5.87
2018-01-19T21:00:40.428Z,6.20
2018-01-19T21:03:10.097Z,6.23
2018-01-19T21:05:39.784Z,6.30
2018-01-19T21:08:09.481Z,7.97
2018-01-19T21:10:39.172Z,6.73
2018-01-19T21:13:09.636Z,6.00
2018-01-19T21:15:39.346Z,6.23
2018-01-19T21:18:09.026Z,6.47
2018-01-19T21:20:39.457Z,6.37
2018-01-19T21:23:09.925Z,5.73
2018-01-19T21:25:39.582Z,5.73
2018-01-19T21:28:10.035Z,6.00
2018-01-19T21:30:39.717Z,5.73
2018-01-19T21:33:10.153Z,6.50
2018-01-19T21:35:40.572Z,6.33
2018-01-19T21:38:11.031Z,5.80
2018-01-19T21:40:40.738Z,5.27
2018-01-19T21:43:10.490Z,6.37
2018-01-19T21:45:40.162Z,5.20
2018-01-19T21:48:09.852Z,5.23
2018-01-19T21:50:39.533Z,5.30
2018-01-19T21:53:09.186Z,5.37
2018-01-19T21:55:38.873Z,5.37
2018-01-19T21:58:09.346Z,5.90
2018-01-19T22:00:39.820Z,5.27
2018-01-19T22:03:10.338Z,5.60
2018-01-19T22:05:40.782Z,6.53
2018-01-19T22:08:11.230Z,5.90
2018-01-19T22:10:40.917Z,5.50
2018-01-19T22:13:11.405Z,6.03
2018-01-19T22:15:41.092Z,5.80
2018-01-19T22:18:10.781Z,6.40
2018-01-19T22:20:40.490Z,6.07
2018-01-19T22:23:10.178Z,5.90
2018-01-19T22:25:40.800Z,5.63
2018-01-19T22:28:10.494Z,7.20
2018-01-19T22:30:40.155Z,6.30
2018-01-19T22:33:09.842Z,6.40
2018-01-19T22:35:39.523Z,5.97
2018-01-19T22:38:09.221Z,6.47
2018-01-19T22:40:38.910Z,6.10
2018-01-19T22:43:08.590Z,6.13
2018-01-19T22:45:38.277Z,6.60
2018-01-19T22:48:08.737Z,6.00
2018-01-19T22:50:38.485Z,5.83
2018-01-19T22:53:08.569Z,6.17
2018-01-19T22:55:38.246Z,5.30
2018-01-19T22:58:08.705Z,5.83
2018-01-19T23:00:38.394Z,6.40
2018-01-19T23:03:08.856Z,5.73
2018-01-19T23:05:39.077Z,5.50
2018-01-19T23:08:08.749Z,6.40
2018-01-19T23:10:38.444Z,7.00
2018-01-19T23:13:08.905Z,6.37
2018-01-19T23:15:38.611Z,6.83
2018-01-19T23:18:08.393Z,7.73
2018-01-19T23:20:38.829Z,7.03
2018-01-19T23:23:09.274Z,7.07
2018-01-19T23:25:38.977Z,7.07
2018-01-19T23:28:08.649Z,7.63
2018-01-19T23:30:38.319Z,7.87
2018-01-19T23:33:08.020Z,7.60
2018-01-19T23:35:37.801Z,7.80
2018-01-19T23:38:08.962Z,7.50
2018-01-19T23:40:39.370Z,8.03
2018-01-19T23:43:09.798Z,8.83
2018-01-19T23:45:40.252Z,8.20
2018-01-19T23:48:09.921Z,9.10
2018-01-19T23:50:39.605Z,9.00
2018-01-19T23:53:09.627Z,9.73
2018-01-19T23:55:39.314Z,8.93
2018-01-19T23:58:08.985Z,9.47
